Paynesville, Missouri
Current Conditions -  °F | °C
As of 10:15 AM on Wednesday 28 Jan 2015 (Local Time) from KPPQ Reporting Station
Clear Clear  
Wind Chill: 24°   Ceiling: Unl
Heat Index: 35°   Visibility: 10mi
Dew Point: 30°   Wind: 20mph
Humidity: 83%   Direction: 140°SE
Pressure: 30.16"   Gusts: NA
Location:  39.3277°N, 90.9481°W
Report Text: KPPQ 281615Z AUTO 14017KT 10SM CLR 02/M01 A3016 RMK AO2 T00151011
Loading
Personal Weather Stations






























Interactive Weather Map New forecast layout! Learn more

10-Day Weather Forecast

Advertisements
Track Severe Weather on mobile